Time;durP1;ratioP1;P1;durP2;ratioP2;P2;SDS_P1;SDS_P2;PMS_P1;PMS_P2;Temp;Humidity;BMP_temperature;BMP_pressure;BME280_temperature;BME280_humidity;BME280_pressure;Samples;Min_cycle;Max_cycle;Signal;HPM_P1;HPM_P2
2022/01/10 00:01:11;;;;;;;16.58;8.95;;;;;;;;;;4998096;28;20056;-72
2022/01/10 00:03:38;;;;;;;12.40;8.43;;;;;;;;;;5015223;28;20069;-72
2022/01/10 00:06:06;;;;;;;16.33;8.20;;;;;;;;;;5018920;28;20049;-72
2022/01/10 00:08:34;;;;;;;13.10;5.75;;;;;;;;;;5021128;28;20056;-71
2022/01/10 00:11:02;;;;;;;10.13;6.32;;;;;;;;;;5025002;28;20041;-71
2022/01/10 00:13:29;;;;;;;7.57;5.85;;;;;;;;;;5029662;28;20516;-72
2022/01/10 00:15:56;;;;;;;14.23;7.13;;;;;;;;;;5005103;28;20057;-72
2022/01/10 00:18:24;;;;;;;7.47;5.47;;;;;;;;;;5017756;28;20125;-71
2022/01/10 00:20:51;;;;;;;11.77;6.50;;;;;;;;;;5015412;28;20034;-72
2022/01/10 00:23:18;;;;;;;9.77;5.63;;;;;;;;;;5016051;28;20407;-72
2022/01/10 00:25:46;;;;;;;5.88;4.57;;;;;;;;;;5025727;28;20034;-72
2022/01/10 00:28:13;;;;;;;11.00;5.88;;;;;;;;;;5028143;28;20041;-72
2022/01/10 00:30:40;;;;;;;6.45;5.53;;;;;;;;;;5023670;28;20503;-71
2022/01/10 00:33:08;;;;;;;9.55;5.40;;;;;;;;;;5039422;28;20045;-72
2022/01/10 00:35:35;;;;;;;6.43;4.18;;;;;;;;;;5034193;28;20388;-71
2022/01/10 00:38:03;;;;;;;5.85;3.95;;;;;;;;;;5021462;28;20287;-72
2022/01/10 00:40:30;;;;;;;6.75;4.32;;;;;;;;;;5027311;28;20398;-72
2022/01/10 00:42:58;;;;;;;5.43;4.20;;;;;;;;;;5029697;28;20056;-72
2022/01/10 00:45:26;;;;;;;9.10;5.20;;;;;;;;;;5033055;28;20507;-72
2022/01/10 00:47:59;;;;;;;9.13;4.38;;;;;;;;;;5026292;28;20042;-72
2022/01/10 00:50:27;;;;;;;7.05;5.22;;;;;;;;;;5021416;28;20113;-72
2022/01/10 00:52:55;;;;;;;5.43;4.10;;;;;;;;;;5030613;28;20080;-72
2022/01/10 00:55:22;;;;;;;5.05;3.85;;;;;;;;;;5007197;28;20076;-71
2022/01/10 00:57:49;;;;;;;3.92;3.47;;;;;;;;;;5019910;28;20464;-72
2022/01/10 01:00:17;;;;;;;4.25;3.65;;;;;;;;;;5014678;28;20042;-71
2022/01/10 01:02:45;;;;;;;5.32;4.32;;;;;;;;;;5025994;28;20037;-72
2022/01/10 01:05:13;;;;;;;9.60;5.70;;;;;;;;;;5022988;28;20038;-71
2022/01/10 01:07:41;;;;;;;8.57;5.32;;;;;;;;;;5005510;28;20579;-71
2022/01/10 01:13:02;;;;;;;6.97;4.28;;;;;;;;;;5023792;28;20121;-72
2022/01/10 01:15:32;;;;;;;5.78;4.45;;;;;;;;;;5031230;28;21778;-72
2022/01/10 01:26:04;;;;;;;7.40;4.13;;;;;;;;;;5034106;28;20284;-71
2022/01/10 01:28:32;;;;;;;7.40;4.05;;;;;;;;;;5027640;28;20308;-72
2022/01/10 01:30:59;;;;;;;5.47;4.53;;;;;;;;;;5025270;28;20144;-72
2022/01/10 01:33:27;;;;;;;7.55;5.97;;;;;;;;;;5031925;28;20065;-72
2022/01/10 01:35:54;;;;;;;4.88;4.18;;;;;;;;;;5028556;28;20056;-71
2022/01/10 01:38:23;;;;;;;4.30;3.95;;;;;;;;;;5022800;28;20046;-71
2022/01/10 01:41:09;;;;;;;5.93;4.30;;;;;;;;;;5002143;28;20050;-71
2022/01/10 01:43:37;;;;;;;5.85;5.07;;;;;;;;;;5022512;28;20041;-72
2022/01/10 01:46:05;;;;;;;6.18;4.97;;;;;;;;;;5034382;28;20037;-72
2022/01/10 01:48:32;;;;;;;8.73;5.60;;;;;;;;;;5019311;28;20034;-72
2022/01/10 01:51:00;;;;;;;6.88;5.47;;;;;;;;;;5030639;28;20049;-72
2022/01/10 01:53:28;;;;;;;8.32;5.55;;;;;;;;;;5017034;28;20034;-71
2022/01/10 01:55:55;;;;;;;9.52;5.53;;;;;;;;;;5025876;28;20041;-72
2022/01/10 01:58:22;;;;;;;7.30;4.55;;;;;;;;;;5027363;28;20100;-72
2022/01/10 02:00:50;;;;;;;6.13;4.38;;;;;;;;;;5029916;28;20109;-72
2022/01/10 02:03:18;;;;;;;5.55;4.50;;;;;;;;;;5033360;28;20049;-72
2022/01/10 02:05:54;;;;;;;7.65;5.05;;;;;;;;;;5015063;28;20064;-72
2022/01/10 02:08:21;;;;;;;6.82;5.50;;;;;;;;;;5032381;28;20064;-72
2022/01/10 02:10:49;;;;;;;9.48;5.93;;;;;;;;;;5017997;28;20069;-72
2022/01/10 02:13:17;;;;;;;5.57;4.50;;;;;;;;;;5035715;28;20051;-71
2022/01/10 02:15:51;;;;;;;7.43;5.22;;;;;;;;;;5033181;28;20064;-72
2022/01/10 02:18:22;;;;;;;7.10;4.97;;;;;;;;;;5019677;28;20058;-72
2022/01/10 02:20:52;;;;;;;8.90;5.22;;;;;;;;;;5039996;28;20045;-71
2022/01/10 02:23:21;;;;;;;7.68;5.07;;;;;;;;;;5010441;28;20037;-72
2022/01/10 02:25:49;;;;;;;6.35;5.50;;;;;;;;;;5017246;28;20052;-72
2022/01/10 02:28:22;;;;;;;6.65;5.28;;;;;;;;;;5031627;28;20099;-72
2022/01/10 02:30:55;;;;;;;6.72;4.95;;;;;;;;;;5049124;28;20386;-72
2022/01/10 02:33:23;;;;;;;7.20;4.20;;;;;;;;;;5031787;28;20141;-72
2022/01/10 02:36:03;;;;;;;6.85;5.15;;;;;;;;;;5017100;28;20402;-72
2022/01/10 02:38:31;;;;;;;6.75;5.13;;;;;;;;;;5019094;28;20042;-70
2022/01/10 02:40:59;;;;;;;6.15;4.78;;;;;;;;;;5023304;28;20045;-72
2022/01/10 02:43:28;;;;;;;7.28;5.10;;;;;;;;;;5020818;28;20060;-72
2022/01/10 02:45:56;;;;;;;5.85;4.53;;;;;;;;;;5015173;28;20165;-72
2022/01/10 02:48:24;;;;;;;6.05;4.20;;;;;;;;;;5009073;28;20046;-72
2022/01/10 02:50:52;;;;;;;9.15;5.20;;;;;;;;;;5023135;28;20485;-71
2022/01/10 02:53:19;;;;;;;6.30;4.85;;;;;;;;;;5033310;28;20128;-72
2022/01/10 02:55:47;;;;;;;8.00;5.60;;;;;;;;;;5013832;28;20084;-72
2022/01/10 02:58:14;;;;;;;9.70;6.30;;;;;;;;;;5031554;28;20071;-72
2022/01/10 03:00:41;;;;;;;7.40;5.55;;;;;;;;;;5033112;28;20042;-71
2022/01/10 03:03:09;;;;;;;8.48;6.05;;;;;;;;;;5017725;28;20080;-71
2022/01/10 03:05:36;;;;;;;6.88;5.68;;;;;;;;;;5007795;28;20076;-71
2022/01/10 03:08:04;;;;;;;8.23;6.15;;;;;;;;;;5019497;28;20038;-72
2022/01/10 03:10:33;;;;;;;8.57;7.18;;;;;;;;;;5024831;28;20100;-71
2022/01/10 03:13:01;;;;;;;11.18;6.82;;;;;;;;;;5039969;28;20041;-72
2022/01/10 03:15:29;;;;;;;8.43;5.97;;;;;;;;;;5032842;28;20472;-72
2022/01/10 03:17:57;;;;;;;9.93;6.65;;;;;;;;;;5035782;28;20223;-72
2022/01/10 03:20:25;;;;;;;7.60;5.63;;;;;;;;;;5035824;28;20051;-72
2022/01/10 03:22:52;;;;;;;6.68;5.68;;;;;;;;;;5019445;28;20061;-72
2022/01/10 03:25:21;;;;;;;8.75;6.20;;;;;;;;;;5034272;28;20042;-72
2022/01/10 03:27:50;;;;;;;6.88;5.13;;;;;;;;;;5034921;28;20117;-72
2022/01/10 03:30:18;;;;;;;7.90;5.93;;;;;;;;;;5036735;28;20073;-72
2022/01/10 03:32:48;;;;;;;10.00;6.82;;;;;;;;;;5034604;28;20072;-71
2022/01/10 03:35:33;;;;;;;11.55;6.45;;;;;;;;;;5021664;28;20052;-71
2022/01/10 03:38:01;;;;;;;9.00;6.53;;;;;;;;;;5024557;28;20129;-72
2022/01/10 03:40:32;;;;;;;9.55;7.78;;;;;;;;;;5001803;28;20049;-72
2022/01/10 03:43:04;;;;;;;5.50;4.95;;;;;;;;;;5019516;28;20515;-71
2022/01/10 03:45:32;;;;;;;8.82;6.03;;;;;;;;;;5004758;28;20034;-72
2022/01/10 03:47:59;;;;;;;7.20;6.50;;;;;;;;;;5006867;28;20045;-71
2022/01/10 03:50:28;;;;;;;9.23;6.72;;;;;;;;;;5013925;28;20068;-71
2022/01/10 03:52:56;;;;;;;5.85;5.25;;;;;;;;;;4997976;28;20501;-73
2022/01/10 03:55:24;;;;;;;10.70;7.78;;;;;;;;;;4997724;28;20046;-71
2022/01/10 03:57:53;;;;;;;8.52;7.65;;;;;;;;;;5000352;28;20089;-72
2022/01/10 04:00:20;;;;;;;9.30;7.85;;;;;;;;;;5012915;28;20085;-71
2022/01/10 04:02:59;;;;;;;12.63;8.40;;;;;;;;;;5010514;28;20049;-72
2022/01/10 04:05:34;;;;;;;7.80;6.93;;;;;;;;;;4984180;28;20050;-72
2022/01/10 04:08:02;;;;;;;10.35;6.60;;;;;;;;;;5006335;28;20049;-72
2022/01/10 04:10:30;;;;;;;7.20;5.93;;;;;;;;;;4998284;28;20054;-72
2022/01/10 04:12:57;;;;;;;13.10;8.98;;;;;;;;;;5004422;28;20065;-71
2022/01/10 04:15:25;;;;;;;10.10;7.35;;;;;;;;;;5015162;28;20112;-72
2022/01/10 04:17:56;;;;;;;9.10;5.55;;;;;;;;;;5016039;28;20117;-71
2022/01/10 04:20:24;;;;;;;10.52;7.90;;;;;;;;;;5015122;28;20049;-72
2022/01/10 04:22:53;;;;;;;6.90;5.30;;;;;;;;;;5003594;28;20421;-72
2022/01/10 04:25:21;;;;;;;6.80;5.78;;;;;;;;;;5017977;28;20046;-72
2022/01/10 04:27:48;;;;;;;6.80;5.57;;;;;;;;;;5023280;28;20496;-72
2022/01/10 04:30:24;;;;;;;9.75;6.97;;;;;;;;;;5013223;28;20044;-72
2022/01/10 04:32:51;;;;;;;11.27;7.82;;;;;;;;;;5035110;28;20052;-72
2022/01/10 04:35:19;;;;;;;6.60;5.78;;;;;;;;;;5038587;28;20060;-72
2022/01/10 04:37:46;;;;;;;9.35;7.85;;;;;;;;;;5037293;28;20049;-72
2022/01/10 04:40:15;;;;;;;8.52;7.45;;;;;;;;;;5035956;28;20072;-71
2022/01/10 04:42:42;;;;;;;8.90;6.43;;;;;;;;;;5036039;28;20060;-72
2022/01/10 04:45:10;;;;;;;7.85;5.68;;;;;;;;;;5035251;28;20073;-72
2022/01/10 04:47:38;;;;;;;6.95;5.20;;;;;;;;;;5035910;28;20080;-72
2022/01/10 04:52:51;;;;;;;6.80;6.13;;;;;;;;;;5010354;28;20089;-72
2022/01/10 04:55:19;;;;;;;9.13;6.32;;;;;;;;;;5000481;28;20177;-72
2022/01/10 04:57:47;;;;;;;8.98;6.30;;;;;;;;;;5017840;28;20065;-72
2022/01/10 05:00:16;;;;;;;9.25;6.85;;;;;;;;;;4999656;28;20052;-72
2022/01/10 05:02:46;;;;;;;8.40;5.82;;;;;;;;;;5013702;28;20081;-72
2022/01/10 05:05:14;;;;;;;8.73;6.28;;;;;;;;;;5004336;28;20060;-71
2022/01/10 05:07:41;;;;;;;10.45;6.53;;;;;;;;;;5018259;28;20073;-72
2022/01/10 05:10:10;;;;;;;9.90;8.02;;;;;;;;;;5001772;28;20041;-72
2022/01/10 05:12:40;;;;;;;9.13;7.72;;;;;;;;;;5004137;28;20080;-72
2022/01/10 05:15:07;;;;;;;9.65;7.80;;;;;;;;;;5010093;28;20045;-71
2022/01/10 05:17:35;;;;;;;8.70;7.05;;;;;;;;;;4999474;28;20169;-72
2022/01/10 05:20:04;;;;;;;7.43;6.72;;;;;;;;;;4997508;28;20180;-73
2022/01/10 05:22:31;;;;;;;10.13;8.40;;;;;;;;;;5013726;28;20255;-72
2022/01/10 05:24:59;;;;;;;8.98;7.15;;;;;;;;;;5020455;28;20112;-72
2022/01/10 05:27:27;;;;;;;8.90;7.10;;;;;;;;;;5001255;28;20080;-71
2022/01/10 05:29:58;;;;;;;8.60;7.72;;;;;;;;;;5016580;28;20070;-72
2022/01/10 05:32:25;;;;;;;9.80;8.05;;;;;;;;;;5005310;28;20048;-71
2022/01/10 05:35:25;;;;;;;10.30;8.85;;;;;;;;;;4970079;28;20056;-72
2022/01/10 05:37:53;;;;;;;14.38;10.30;;;;;;;;;;4975552;28;20118;-72
2022/01/10 05:40:21;;;;;;;13.38;8.80;;;;;;;;;;4979094;28;20585;-71
2022/01/10 05:42:48;;;;;;;13.85;9.52;;;;;;;;;;4983046;28;20078;-72
2022/01/10 05:45:16;;;;;;;11.85;9.82;;;;;;;;;;4960775;28;20101;-72
2022/01/10 05:47:45;;;;;;;13.52;10.48;;;;;;;;;;4975873;28;20047;-71
2022/01/10 05:50:14;;;;;;;14.65;10.45;;;;;;;;;;4975820;28;20039;-71
2022/01/10 05:52:45;;;;;;;10.35;8.77;;;;;;;;;;4966550;28;20534;-72
2022/01/10 05:55:13;;;;;;;9.68;8.23;;;;;;;;;;4979093;28;20073;-72
2022/01/10 05:57:44;;;;;;;8.30;7.38;;;;;;;;;;4942230;28;20185;-72
2022/01/10 06:00:12;;;;;;;10.98;7.43;;;;;;;;;;4972821;28;20654;-72
2022/01/10 06:02:42;;;;;;;14.40;10.35;;;;;;;;;;4972880;28;20242;-72
2022/01/10 06:05:21;;;;;;;10.68;9.05;;;;;;;;;;4967247;28;20054;-71
2022/01/10 06:07:51;;;;;;;11.55;9.07;;;;;;;;;;4978581;28;20064;-71
2022/01/10 06:10:19;;;;;;;13.60;9.85;;;;;;;;;;4959721;28;20252;-72
2022/01/10 06:12:46;;;;;;;16.23;9.98;;;;;;;;;;5030516;28;20038;-72
2022/01/10 06:15:15;;;;;;;11.73;9.27;;;;;;;;;;5026910;28;20057;-72
2022/01/10 06:17:44;;;;;;;13.75;11.32;;;;;;;;;;5041753;28;20059;-71
2022/01/10 06:20:11;;;;;;;16.80;14.73;;;;;;;;;;5029088;28;20108;-72
2022/01/10 06:22:39;;;;;;;15.73;11.38;;;;;;;;;;5017031;28;20047;-72
2022/01/10 06:25:10;;;;;;;13.68;9.07;;;;;;;;;;5027322;28;20044;-72
2022/01/10 06:27:37;;;;;;;12.50;10.38;;;;;;;;;;5036742;28;20045;-72
2022/01/10 06:30:05;;;;;;;12.25;9.23;;;;;;;;;;5018953;28;20045;-72
2022/01/10 06:32:36;;;;;;;10.13;8.85;;;;;;;;;;5029386;28;20037;-72
2022/01/10 06:35:07;;;;;;;12.88;10.05;;;;;;;;;;5006091;28;20046;-73
2022/01/10 06:37:34;;;;;;;12.00;9.60;;;;;;;;;;5026602;28;20489;-73
2022/01/10 06:40:02;;;;;;;11.30;10.10;;;;;;;;;;5010577;28;20062;-71
2022/01/10 06:42:30;;;;;;;12.15;10.48;;;;;;;;;;5032703;28;20108;-72
2022/01/10 06:44:58;;;;;;;10.60;8.68;;;;;;;;;;5019098;28;20394;-72
2022/01/10 06:47:25;;;;;;;34.75;24.35;;;;;;;;;;5025216;28;20037;-72
2022/01/10 06:49:53;;;;;;;22.98;15.27;;;;;;;;;;4983289;28;20088;-72
2022/01/10 06:52:21;;;;;;;13.52;12.18;;;;;;;;;;4990756;28;20054;-73
2022/01/10 06:54:52;;;;;;;12.97;11.47;;;;;;;;;;4993477;28;20058;-73
2022/01/10 06:57:19;;;;;;;12.48;9.48;;;;;;;;;;4992294;28;20046;-72
2022/01/10 06:59:47;;;;;;;13.57;11.68;;;;;;;;;;4977237;28;20425;-72
2022/01/10 07:02:15;;;;;;;17.55;11.88;;;;;;;;;;4979254;28;20102;-73
2022/01/10 07:04:43;;;;;;;19.08;15.10;;;;;;;;;;4997320;28;20078;-73
2022/01/10 07:07:11;;;;;;;16.15;13.68;;;;;;;;;;4976519;28;20038;-73
2022/01/10 07:09:42;;;;;;;16.48;13.88;;;;;;;;;;4982691;28;20050;-73
2022/01/10 07:12:12;;;;;;;20.55;15.70;;;;;;;;;;4979094;28;20834;-73
2022/01/10 07:14:47;;;;;;;18.92;16.40;;;;;;;;;;4976846;28;20137;-73
2022/01/10 07:17:16;;;;;;;20.05;15.88;;;;;;;;;;4984894;28;20054;-73
2022/01/10 07:19:44;;;;;;;20.13;17.15;;;;;;;;;;4989814;28;20112;-72
2022/01/10 07:22:17;;;;;;;21.90;16.08;;;;;;;;;;5029010;28;20049;-73
2022/01/10 07:24:45;;;;;;;19.42;15.73;;;;;;;;;;5010406;28;20170;-72
2022/01/10 07:27:12;;;;;;;21.38;14.98;;;;;;;;;;5021140;28;20065;-73
2022/01/10 07:29:42;;;;;;;19.42;15.68;;;;;;;;;;5016546;28;21365;-73
2022/01/10 07:32:12;;;;;;;23.02;16.88;;;;;;;;;;5026561;28;20121;-72
2022/01/10 07:34:40;;;;;;;22.85;17.60;;;;;;;;;;5018064;28;20124;-71
2022/01/10 07:37:07;;;;;;;17.77;14.77;;;;;;;;;;5028828;28;20095;-72
2022/01/10 07:39:35;;;;;;;25.83;18.85;;;;;;;;;;5020354;28;20045;-73
2022/01/10 07:42:03;;;;;;;24.20;17.92;;;;;;;;;;5021076;28;20432;-72
2022/01/10 07:44:40;;;;;;;23.98;17.77;;;;;;;;;;5020215;28;20279;-73
2022/01/10 07:47:08;;;;;;;20.80;16.85;;;;;;;;;;5021166;28;20709;-75
2022/01/10 07:49:36;;;;;;;19.10;16.88;;;;;;;;;;5024248;28;20042;-75
2022/01/10 07:52:03;;;;;;;27.15;18.00;;;;;;;;;;5021059;28;20037;-75
2022/01/10 07:54:31;;;;;;;23.05;17.50;;;;;;;;;;5019124;28;20305;-75
2022/01/10 07:56:58;;;;;;;20.13;17.50;;;;;;;;;;5018812;28;20504;-75
2022/01/10 07:59:26;;;;;;;21.90;16.52;;;;;;;;;;5020666;28;20203;-75
2022/01/10 08:01:53;;;;;;;26.45;18.42;;;;;;;;;;5021183;28;20125;-75
2022/01/10 08:04:21;;;;;;;19.23;15.02;;;;;;;;;;5013118;28;20034;-75
2022/01/10 08:06:48;;;;;;;18.88;15.00;;;;;;;;;;5008287;28;20076;-75
2022/01/10 08:09:16;;;;;;;24.15;16.85;;;;;;;;;;4996625;28;20056;-74
2022/01/10 08:11:43;;;;;;;20.48;15.77;;;;;;;;;;5013223;28;20112;-75
2022/01/10 08:14:10;;;;;;;20.35;16.38;;;;;;;;;;5004546;28;20057;-74
2022/01/10 08:16:38;;;;;;;25.08;15.30;;;;;;;;;;5011600;28;20108;-75
2022/01/10 08:19:06;;;;;;;17.05;13.93;;;;;;;;;;5014104;28;20044;-75
2022/01/10 08:21:33;;;;;;;17.38;13.65;;;;;;;;;;5009428;28;20062;-74
2022/01/10 08:24:00;;;;;;;20.05;15.13;;;;;;;;;;5008432;28;20167;-75
2022/01/10 08:26:28;;;;;;;18.73;14.70;;;;;;;;;;5018332;28;20501;-74
2022/01/10 08:28:55;;;;;;;21.17;15.73;;;;;;;;;;5013278;28;20092;-75
2022/01/10 08:31:23;;;;;;;20.90;15.05;;;;;;;;;;5013193;28;20057;-75
2022/01/10 08:33:51;;;;;;;23.60;17.88;;;;;;;;;;5017308;28;20103;-74
2022/01/10 08:36:18;;;;;;;22.80;16.83;;;;;;;;;;5000163;28;20073;-75
2022/01/10 08:38:45;;;;;;;18.95;14.23;;;;;;;;;;5012763;28;20128;-75
2022/01/10 08:41:13;;;;;;;18.35;15.25;;;;;;;;;;5016411;28;20128;-74
2022/01/10 08:43:40;;;;;;;22.88;14.18;;;;;;;;;;5024148;28;20045;-75
2022/01/10 08:46:08;;;;;;;18.83;13.30;;;;;;;;;;5007831;28;20038;-75
2022/01/10 08:48:48;;;;;;;17.77;13.45;;;;;;;;;;5012601;28;20104;-74
2022/01/10 08:51:15;;;;;;;18.73;14.48;;;;;;;;;;5006225;28;20050;-75
2022/01/10 08:53:42;;;;;;;21.27;14.65;;;;;;;;;;5019283;28;20101;-75
2022/01/10 08:56:10;;;;;;;18.92;14.13;;;;;;;;;;5016111;28;20045;-75
2022/01/10 08:58:38;;;;;;;21.90;15.45;;;;;;;;;;5009659;28;20045;-74
2022/01/10 09:01:06;;;;;;;18.88;15.07;;;;;;;;;;5015924;28;20132;-75
2022/01/10 09:03:33;;;;;;;18.00;14.90;;;;;;;;;;4998290;28;20038;-74
2022/01/10 09:06:01;;;;;;;20.83;16.17;;;;;;;;;;5013836;28;20478;-74
2022/01/10 09:08:32;;;;;;;18.17;14.18;;;;;;;;;;5010573;28;20516;-74
2022/01/10 09:11:00;;;;;;;22.08;16.05;;;;;;;;;;4999057;28;20461;-74
2022/01/10 09:13:27;;;;;;;21.50;15.45;;;;;;;;;;4995918;28;20452;-74
2022/01/10 09:15:54;;;;;;;18.48;15.35;;;;;;;;;;5019914;28;20069;-74
2022/01/10 09:18:22;;;;;;;21.20;16.08;;;;;;;;;;5014640;28;20042;-74
2022/01/10 09:20:52;;;;;;;21.30;17.30;;;;;;;;;;5022556;28;20345;-73
2022/01/10 09:23:19;;;;;;;23.20;17.15;;;;;;;;;;5027315;28;20536;-74
2022/01/10 09:25:46;;;;;;;22.83;17.10;;;;;;;;;;5011217;28;20126;-74
2022/01/10 09:28:14;;;;;;;21.10;17.00;;;;;;;;;;5014570;28;20136;-74
2022/01/10 09:30:41;;;;;;;26.33;18.75;;;;;;;;;;5026933;28;20120;-74
2022/01/10 09:33:09;;;;;;;19.50;15.85;;;;;;;;;;5024689;28;20077;-74
2022/01/10 09:35:37;;;;;;;19.42;15.70;;;;;;;;;;5017669;28;20117;-75
2022/01/10 09:38:04;;;;;;;22.30;15.65;;;;;;;;;;5016558;28;20469;-75
2022/01/10 09:40:31;;;;;;;18.52;14.25;;;;;;;;;;5013755;28;20046;-74
2022/01/10 09:42:59;;;;;;;21.08;14.25;;;;;;;;;;5017252;28;20418;-74
2022/01/10 09:45:26;;;;;;;20.38;14.52;;;;;;;;;;5011523;28;20486;-74
2022/01/10 09:47:54;;;;;;;19.73;15.20;;;;;;;;;;5032771;28;20496;-75
2022/01/10 09:50:22;;;;;;;17.92;14.75;;;;;;;;;;5012512;28;20621;-74
2022/01/10 09:52:50;;;;;;;19.33;13.88;;;;;;;;;;5019101;28;20037;-74
2022/01/10 09:55:18;;;;;;;17.25;13.57;;;;;;;;;;5030078;28;20501;-74
2022/01/10 09:57:45;;;;;;;17.35;13.43;;;;;;;;;;5011684;28;20046;-74
2022/01/10 10:00:22;;;;;;;19.55;14.90;;;;;;;;;;5019068;28;20045;-75
2022/01/10 10:02:50;;;;;;;21.15;16.63;;;;;;;;;;5008754;28;20141;-76
2022/01/10 10:05:19;;;;;;;19.83;14.88;;;;;;;;;;5009973;28;20088;-76
2022/01/10 10:07:48;;;;;;;20.13;15.10;;;;;;;;;;5026441;28;20179;-73
2022/01/10 10:10:17;;;;;;;18.77;14.18;;;;;;;;;;4989242;28;20049;-74
2022/01/10 10:12:47;;;;;;;20.00;14.77;;;;;;;;;;5009441;28;20524;-74
2022/01/10 10:15:17;;;;;;;18.38;13.27;;;;;;;;;;5020349;28;20390;-73
2022/01/10 10:17:45;;;;;;;21.17;15.27;;;;;;;;;;4998278;28;20073;-74
2022/01/10 10:20:16;;;;;;;15.65;11.45;;;;;;;;;;4993894;28;20115;-74
2022/01/10 10:23:05;;;;;;;19.20;13.88;;;;;;;;;;5015231;28;20042;-74
2022/01/10 10:25:33;;;;;;;18.05;14.52;;;;;;;;;;5016671;28;20034;-74
2022/01/10 10:28:02;;;;;;;19.38;15.60;;;;;;;;;;5010185;28;20132;-74
2022/01/10 10:30:31;;;;;;;22.20;16.08;;;;;;;;;;5011535;28;20077;-74
2022/01/10 10:33:14;;;;;;;21.42;15.13;;;;;;;;;;5010392;28;20081;-74
2022/01/10 10:35:43;;;;;;;20.17;15.15;;;;;;;;;;5014424;28;20064;-74
2022/01/10 10:38:10;;;;;;;20.02;15.07;;;;;;;;;;5028002;28;20042;-75
2022/01/10 10:40:42;;;;;;;20.02;16.25;;;;;;;;;;5020903;28;20131;-74
2022/01/10 10:43:09;;;;;;;22.23;16.50;;;;;;;;;;5021774;28;20037;-75
2022/01/10 10:45:37;;;;;;;25.15;17.38;;;;;;;;;;5024307;28;20108;-75
2022/01/10 10:48:06;;;;;;;21.10;17.08;;;;;;;;;;5017647;28;20256;-75
2022/01/10 10:50:47;;;;;;;20.63;16.73;;;;;;;;;;5027883;28;20192;-75
2022/01/10 10:53:15;;;;;;;19.45;16.00;;;;;;;;;;4994703;28;20054;-76
2022/01/10 10:55:43;;;;;;;23.95;16.40;;;;;;;;;;5007502;28;20041;-76
2022/01/10 10:58:11;;;;;;;17.90;14.82;;;;;;;;;;5010273;28;20123;-75
2022/01/10 11:00:39;;;;;;;20.95;17.38;;;;;;;;;;5006471;28;20038;-75
2022/01/10 11:03:09;;;;;;;18.20;15.65;;;;;;;;;;5019316;28;20555;-75
2022/01/10 11:05:37;;;;;;;17.00;13.73;;;;;;;;;;5026595;28;20037;-76
2022/01/10 11:08:04;;;;;;;20.13;14.38;;;;;;;;;;5010375;28;20041;-76
2022/01/10 11:10:32;;;;;;;17.73;13.90;;;;;;;;;;4995155;28;20442;-75
2022/01/10 11:13:01;;;;;;;15.70;13.13;;;;;;;;;;5003375;28;20134;-75
2022/01/10 11:15:28;;;;;;;18.35;14.23;;;;;;;;;;5017661;28;20054;-75
2022/01/10 11:18:03;;;;;;;15.65;13.45;;;;;;;;;;5016270;28;20076;-75
2022/01/10 11:20:40;;;;;;;18.98;14.05;;;;;;;;;;5020591;28;20573;-75
2022/01/10 11:23:28;;;;;;;19.45;15.30;;;;;;;;;;5008216;28;20469;-75
2022/01/10 11:25:57;;;;;;;17.23;14.70;;;;;;;;;;5023233;28;20050;-75
2022/01/10 11:28:26;;;;;;;17.50;12.88;;;;;;;;;;5012411;28;20065;-75
2022/01/10 11:30:54;;;;;;;17.13;13.13;;;;;;;;;;5018618;28;20121;-75
2022/01/10 11:33:26;;;;;;;18.63;14.85;;;;;;;;;;5011802;28;20128;-75
2022/01/10 11:35:55;;;;;;;15.75;13.93;;;;;;;;;;5011387;28;20146;-75
2022/01/10 11:38:24;;;;;;;17.90;14.15;;;;;;;;;;5007613;28;20056;-75
2022/01/10 11:40:59;;;;;;;17.42;14.32;;;;;;;;;;5005578;28;20042;-75
2022/01/10 11:43:53;;;;;;;14.25;11.73;;;;;;;;;;5016768;28;20046;-76
2022/01/10 11:46:25;;;;;;;20.45;14.80;;;;;;;;;;5009401;28;20133;-75
2022/01/10 11:48:55;;;;;;;16.05;13.00;;;;;;;;;;5015748;28;20048;-75
2022/01/10 11:51:23;;;;;;;14.20;12.52;;;;;;;;;;5009248;28;20484;-75
2022/01/10 11:53:53;;;;;;;17.67;13.77;;;;;;;;;;5014789;28;20113;-75
2022/01/10 11:56:27;;;;;;;15.38;13.23;;;;;;;;;;5018721;28;20074;-75
2022/01/10 11:59:10;;;;;;;15.63;13.02;;;;;;;;;;5018522;28;20049;-75
2022/01/10 12:01:45;;;;;;;16.38;12.35;;;;;;;;;;5016953;28;20121;-76
2022/01/10 12:04:21;;;;;;;13.77;12.07;;;;;;;;;;4973128;28;20472;-72
2022/01/10 12:06:50;;;;;;;13.20;11.80;;;;;;;;;;4960010;28;20039;-72
2022/01/10 12:09:18;;;;;;;13.93;12.35;;;;;;;;;;4967188;28;20049;-72
2022/01/10 12:11:47;;;;;;;14.48;12.07;;;;;;;;;;4963709;28;20070;-72
2022/01/10 12:14:14;;;;;;;17.48;11.65;;;;;;;;;;4985067;28;20047;-71
2022/01/10 12:16:42;;;;;;;15.57;13.95;;;;;;;;;;4978891;28;20043;-71
2022/01/10 12:19:10;;;;;;;14.48;11.93;;;;;;;;;;4985323;28;20418;-72
2022/01/10 12:21:38;;;;;;;16.02;13.48;;;;;;;;;;4979348;28;20057;-71
2022/01/10 12:24:06;;;;;;;15.32;12.70;;;;;;;;;;4984006;28;20034;-71
2022/01/10 12:26:34;;;;;;;18.13;14.10;;;;;;;;;;5006035;28;20061;-71
2022/01/10 12:29:03;;;;;;;17.38;15.38;;;;;;;;;;4993394;28;20124;-71
2022/01/10 12:31:31;;;;;;;16.17;13.48;;;;;;;;;;4986254;28;20074;-70
2022/01/10 12:33:59;;;;;;;17.35;14.43;;;;;;;;;;4991697;28;20038;-71
2022/01/10 12:36:30;;;;;;;15.98;13.32;;;;;;;;;;4989915;28;20041;-71
2022/01/10 12:38:59;;;;;;;16.75;13.55;;;;;;;;;;4991812;28;20137;-70
2022/01/10 12:41:27;;;;;;;17.17;14.75;;;;;;;;;;4990437;28;20047;-70
2022/01/10 12:43:55;;;;;;;14.60;12.85;;;;;;;;;;4992645;28;20397;-70
2022/01/10 12:46:23;;;;;;;17.67;13.68;;;;;;;;;;4992692;28;20038;-70
2022/01/10 12:48:52;;;;;;;14.30;12.63;;;;;;;;;;4991168;28;20046;-70
2022/01/10 12:51:20;;;;;;;16.38;14.05;;;;;;;;;;4991779;28;20181;-71
2022/01/10 12:54:02;;;;;;;18.90;15.07;;;;;;;;;;4972699;28;20458;-71
2022/01/10 12:56:29;;;;;;;16.55;14.13;;;;;;;;;;4984096;28;20104;-70
2022/01/10 12:58:57;;;;;;;18.30;14.75;;;;;;;;;;4990097;28;20070;-70
2022/01/10 13:01:24;;;;;;;18.20;14.70;;;;;;;;;;4990954;28;20054;-70
2022/01/10 13:03:53;;;;;;;21.95;15.13;;;;;;;;;;4989880;28;20501;-71
2022/01/10 13:06:21;;;;;;;20.05;14.00;;;;;;;;;;4980670;28;20042;-71
2022/01/10 13:08:49;;;;;;;19.10;15.20;;;;;;;;;;4987817;28;20121;-71
2022/01/10 13:11:19;;;;;;;21.17;14.35;;;;;;;;;;4989961;28;20042;-73
2022/01/10 13:13:48;;;;;;;16.25;14.35;;;;;;;;;;4987127;28;20053;-72
2022/01/10 13:16:26;;;;;;;21.05;15.32;;;;;;;;;;4989237;28;20064;-74
2022/01/10 13:18:54;;;;;;;21.60;15.05;;;;;;;;;;4990057;28;20089;-71
2022/01/10 13:21:38;;;;;;;14.65;12.98;;;;;;;;;;4988019;28;20069;-71
2022/01/10 13:24:06;;;;;;;17.80;14.80;;;;;;;;;;4990120;28;20391;-71
2022/01/10 13:26:33;;;;;;;24.35;15.27;;;;;;;;;;4991363;28;20129;-71
2022/01/10 13:29:04;;;;;;;18.63;14.35;;;;;;;;;;4991510;28;20414;-71
2022/01/10 13:31:38;;;;;;;19.35;14.70;;;;;;;;;;4985568;28;20070;-71
2022/01/10 13:34:05;;;;;;;17.35;13.98;;;;;;;;;;4991662;28;20050;-71
2022/01/10 13:36:43;;;;;;;16.52;13.43;;;;;;;;;;4989248;28;20068;-71
2022/01/10 13:39:19;;;;;;;20.83;14.27;;;;;;;;;;4989782;28;20351;-71
2022/01/10 13:42:00;;;;;;;24.35;16.35;;;;;;;;;;4987420;28;20132;-71
2022/01/10 13:44:28;;;;;;;17.13;14.23;;;;;;;;;;4990048;28;20065;-71
2022/01/10 13:47:05;;;;;;;18.90;14.57;;;;;;;;;;4985911;28;20046;-71
2022/01/10 13:49:35;;;;;;;16.92;13.32;;;;;;;;;;4989467;28;20413;-71
2022/01/10 13:52:10;;;;;;;22.70;13.52;;;;;;;;;;4984884;28;20077;-71
2022/01/10 13:54:37;;;;;;;18.65;14.35;;;;;;;;;;4987661;28;20470;-71
2022/01/10 13:57:16;;;;;;;14.70;12.95;;;;;;;;;;4991799;28;20367;-72
2022/01/10 13:59:44;;;;;;;14.95;13.27;;;;;;;;;;4989255;28;20489;-72
2022/01/10 14:02:15;;;;;;;17.58;13.82;;;;;;;;;;4990085;28;20117;-72
2022/01/10 14:04:44;;;;;;;16.92;12.23;;;;;;;;;;4991102;28;20482;-72
2022/01/10 14:07:16;;;;;;;13.52;11.02;;;;;;;;;;4988392;28;20044;-70
2022/01/10 14:09:43;;;;;;;;;;;;;;;;;;4991074;28;20077;-71
2022/01/10 14:12:11;;;;;;;15.30;12.18;;;;;;;;;;4990722;28;19965;-71
2022/01/10 14:14:40;;;;;;;19.20;13.32;;;;;;;;;;4983399;28;20042;-72
2022/01/10 14:17:11;;;;;;;14.57;11.52;;;;;;;;;;4988431;28;20077;-71
2022/01/10 14:19:38;;;;;;;14.50;12.05;;;;;;;;;;4990210;28;20083;-73
2022/01/10 14:22:05;;;;;;;19.73;13.80;;;;;;;;;;4991035;28;20046;-73
2022/01/10 14:24:33;;;;;;;20.27;13.77;;;;;;;;;;4989821;28;20566;-72
2022/01/10 14:27:02;;;;;;;17.60;12.52;;;;;;;;;;4987960;28;20154;-72
2022/01/10 14:29:33;;;;;;;19.15;13.23;;;;;;;;;;4971029;28;20388;-71
2022/01/10 14:32:01;;;;;;;14.73;11.98;;;;;;;;;;4986041;28;20041;-71
2022/01/10 14:34:28;;;;;;;20.08;13.05;;;;;;;;;;4987505;28;20125;-71
2022/01/10 14:36:55;;;;;;;12.98;11.57;;;;;;;;;;4988143;28;20561;-71
2022/01/10 14:39:23;;;;;;;15.40;12.02;;;;;;;;;;4991490;28;20474;-72
2022/01/10 14:41:50;;;;;;;19.02;13.55;;;;;;;;;;4990459;28;20505;-72
2022/01/10 14:44:18;;;;;;;19.73;14.05;;;;;;;;;;4987045;28;20043;-72
2022/01/10 14:46:46;;;;;;;16.10;12.52;;;;;;;;;;4982403;28;20066;-72
2022/01/10 14:49:17;;;;;;;15.20;11.77;;;;;;;;;;4987391;28;20062;-71
2022/01/10 14:51:45;;;;;;;19.00;12.65;;;;;;;;;;4987195;28;20078;-71